sensor_id;sensor_type;location;lat;lon;timestamp;P1;durP1;ratioP1;P2;durP2;ratioP2
67816;SDS011;54614;47.576;7.524;2023-06-26T00:01:57;3.97;;;3.58;;
67816;SDS011;54614;47.576;7.524;2023-06-26T00:04:23;4.45;;;3.53;;
67816;SDS011;54614;47.576;7.524;2023-06-26T00:06:49;3.70;;;3.40;;
67816;SDS011;54614;47.576;7.524;2023-06-26T00:09:14;4.00;;;3.30;;
67816;SDS011;54614;47.576;7.524;2023-06-26T00:11:40;3.75;;;3.40;;
67816;SDS011;54614;47.576;7.524;2023-06-26T00:14:06;3.85;;;3.45;;
67816;SDS011;54614;47.576;7.524;2023-06-26T00:16:31;3.80;;;3.40;;
67816;SDS011;54614;47.576;7.524;2023-06-26T00:18:57;3.45;;;3.15;;
67816;SDS011;54614;47.576;7.524;2023-06-26T00:21:24;3.75;;;3.42;;
67816;SDS011;54614;47.576;7.524;2023-06-26T00:23:50;3.60;;;3.30;;
67816;SDS011;54614;47.576;7.524;2023-06-26T00:26:16;3.92;;;3.53;;
67816;SDS011;54614;47.576;7.524;2023-06-26T00:28:42;3.50;;;3.20;;
67816;SDS011;54614;47.576;7.524;2023-06-26T00:31:08;3.72;;;3.42;;
67816;SDS011;54614;47.576;7.524;2023-06-26T00:33:33;3.70;;;3.40;;
67816;SDS011;54614;47.576;7.524;2023-06-26T00:35:59;3.67;;;3.38;;
67816;SDS011;54614;47.576;7.524;2023-06-26T00:38:25;4.70;;;3.20;;
67816;SDS011;54614;47.576;7.524;2023-06-26T00:40:50;3.60;;;3.30;;
67816;SDS011;54614;47.576;7.524;2023-06-26T00:43:16;3.58;;;3.28;;
67816;SDS011;54614;47.576;7.524;2023-06-26T00:45:41;3.60;;;3.30;;
67816;SDS011;54614;47.576;7.524;2023-06-26T00:48:07;3.70;;;3.40;;
67816;SDS011;54614;47.576;7.524;2023-06-26T00:50:37;4.00;;;3.60;;
67816;SDS011;54614;47.576;7.524;2023-06-26T00:53:02;3.90;;;3.50;;
67816;SDS011;54614;47.576;7.524;2023-06-26T00:55:29;3.80;;;3.45;;
67816;SDS011;54614;47.576;7.524;2023-06-26T00:57:54;3.80;;;3.45;;
67816;SDS011;54614;47.576;7.524;2023-06-26T01:00:21;3.70;;;3.40;;
67816;SDS011;54614;47.576;7.524;2023-06-26T01:02:47;3.63;;;3.33;;
67816;SDS011;54614;47.576;7.524;2023-06-26T01:05:13;3.65;;;3.35;;
67816;SDS011;54614;47.576;7.524;2023-06-26T01:07:46;3.67;;;3.38;;
67816;SDS011;54614;47.576;7.524;2023-06-26T01:10:13;3.67;;;3.38;;
67816;SDS011;54614;47.576;7.524;2023-06-26T01:12:39;3.63;;;3.33;;
67816;SDS011;54614;47.576;7.524;2023-06-26T01:15:05;3.65;;;3.28;;
67816;SDS011;54614;47.576;7.524;2023-06-26T01:17:31;4.10;;;3.70;;
67816;SDS011;54614;47.576;7.524;2023-06-26T01:20:00;4.10;;;3.72;;
67816;SDS011;54614;47.576;7.524;2023-06-26T01:22:34;3.40;;;3.10;;
67816;SDS011;54614;47.576;7.524;2023-06-26T01:27:50;3.70;;;3.40;;
67816;SDS011;54614;47.576;7.524;2023-06-26T01:30:18;3.35;;;3.05;;
67816;SDS011;54614;47.576;7.524;2023-06-26T01:32:45;3.92;;;3.53;;
67816;SDS011;54614;47.576;7.524;2023-06-26T01:35:11;3.45;;;3.15;;
67816;SDS011;54614;47.576;7.524;2023-06-26T01:37:38;4.03;;;3.42;;
67816;SDS011;54614;47.576;7.524;2023-06-26T01:40:04;3.80;;;3.50;;
67816;SDS011;54614;47.576;7.524;2023-06-26T01:42:33;3.38;;;3.08;;
67816;SDS011;54614;47.576;7.524;2023-06-26T01:45:02;6.28;;;3.60;;
67816;SDS011;54614;47.576;7.524;2023-06-26T01:47:34;3.47;;;3.17;;
67816;SDS011;54614;47.576;7.524;2023-06-26T01:50:09;4.05;;;3.65;;
67816;SDS011;54614;47.576;7.524;2023-06-26T01:52:43;5.30;;;3.50;;
67816;SDS011;54614;47.576;7.524;2023-06-26T01:55:23;4.30;;;3.40;;
67816;SDS011;54614;47.576;7.524;2023-06-26T01:57:58;4.78;;;3.42;;
67816;SDS011;54614;47.576;7.524;2023-06-26T02:00:24;3.50;;;3.20;;
67816;SDS011;54614;47.576;7.524;2023-06-26T02:02:51;4.13;;;3.30;;
67816;SDS011;54614;47.576;7.524;2023-06-26T02:05:17;4.53;;;3.45;;
67816;SDS011;54614;47.576;7.524;2023-06-26T02:07:43;3.50;;;3.20;;
67816;SDS011;54614;47.576;7.524;2023-06-26T02:10:09;3.90;;;3.35;;
67816;SDS011;54614;47.576;7.524;2023-06-26T02:12:35;3.80;;;3.50;;
67816;SDS011;54614;47.576;7.524;2023-06-26T02:15:02;3.60;;;3.30;;
67816;SDS011;54614;47.576;7.524;2023-06-26T02:17:29;3.70;;;3.40;;
67816;SDS011;54614;47.576;7.524;2023-06-26T02:19:55;3.50;;;3.20;;
67816;SDS011;54614;47.576;7.524;2023-06-26T02:22:20;3.60;;;3.30;;
67816;SDS011;54614;47.576;7.524;2023-06-26T02:24:46;3.33;;;3.03;;
67816;SDS011;54614;47.576;7.524;2023-06-26T02:27:12;3.75;;;3.30;;
67816;SDS011;54614;47.576;7.524;2023-06-26T02:29:38;3.72;;;3.25;;
67816;SDS011;54614;47.576;7.524;2023-06-26T02:32:05;4.40;;;3.28;;
67816;SDS011;54614;47.576;7.524;2023-06-26T02:34:31;3.65;;;3.35;;
67816;SDS011;54614;47.576;7.524;2023-06-26T02:36:57;3.47;;;3.13;;
67816;SDS011;54614;47.576;7.524;2023-06-26T02:39:23;3.70;;;3.40;;
67816;SDS011;54614;47.576;7.524;2023-06-26T02:41:49;3.95;;;3.15;;
67816;SDS011;54614;47.576;7.524;2023-06-26T02:44:15;3.53;;;3.22;;
67816;SDS011;54614;47.576;7.524;2023-06-26T02:46:41;3.40;;;3.10;;
67816;SDS011;54614;47.576;7.524;2023-06-26T02:49:06;3.38;;;3.00;;
67816;SDS011;54614;47.576;7.524;2023-06-26T02:51:32;3.70;;;3.25;;
67816;SDS011;54614;47.576;7.524;2023-06-26T02:53:58;3.85;;;3.50;;
67816;SDS011;54614;47.576;7.524;2023-06-26T02:56:24;3.85;;;3.45;;
67816;SDS011;54614;47.576;7.524;2023-06-26T02:58:54;3.40;;;3.10;;
67816;SDS011;54614;47.576;7.524;2023-06-26T03:01:22;3.67;;;3.38;;
67816;SDS011;54614;47.576;7.524;2023-06-26T03:03:48;3.72;;;3.42;;
67816;SDS011;54614;47.576;7.524;2023-06-26T03:06:14;3.83;;;3.45;;
67816;SDS011;54614;47.576;7.524;2023-06-26T03:08:40;3.33;;;3.03;;
67816;SDS011;54614;47.576;7.524;2023-06-26T03:11:06;4.15;;;3.50;;
67816;SDS011;54614;47.576;7.524;2023-06-26T03:13:34;3.47;;;3.17;;
67816;SDS011;54614;47.576;7.524;2023-06-26T03:16:01;3.60;;;3.30;;
67816;SDS011;54614;47.576;7.524;2023-06-26T03:18:27;3.38;;;3.08;;
67816;SDS011;54614;47.576;7.524;2023-06-26T03:20:53;3.60;;;3.30;;
67816;SDS011;54614;47.576;7.524;2023-06-26T03:23:20;3.50;;;3.20;;
67816;SDS011;54614;47.576;7.524;2023-06-26T03:25:46;3.42;;;3.13;;
67816;SDS011;54614;47.576;7.524;2023-06-26T03:28:12;3.50;;;3.20;;
67816;SDS011;54614;47.576;7.524;2023-06-26T03:30:38;3.60;;;3.30;;
67816;SDS011;54614;47.576;7.524;2023-06-26T03:33:04;3.60;;;3.30;;
67816;SDS011;54614;47.576;7.524;2023-06-26T03:35:30;3.60;;;3.30;;
67816;SDS011;54614;47.576;7.524;2023-06-26T03:37:55;3.55;;;3.25;;
67816;SDS011;54614;47.576;7.524;2023-06-26T03:40:22;3.97;;;3.45;;
67816;SDS011;54614;47.576;7.524;2023-06-26T03:42:47;3.75;;;3.45;;
67816;SDS011;54614;47.576;7.524;2023-06-26T03:45:13;3.70;;;3.40;;
67816;SDS011;54614;47.576;7.524;2023-06-26T03:47:38;3.88;;;3.47;;
67816;SDS011;54614;47.576;7.524;2023-06-26T03:50:04;3.70;;;3.40;;
67816;SDS011;54614;47.576;7.524;2023-06-26T03:52:30;3.72;;;3.42;;
67816;SDS011;54614;47.576;7.524;2023-06-26T03:54:59;4.18;;;3.78;;
67816;SDS011;54614;47.576;7.524;2023-06-26T03:57:25;4.18;;;3.78;;
67816;SDS011;54614;47.576;7.524;2023-06-26T03:59:51;5.05;;;3.92;;
67816;SDS011;54614;47.576;7.524;2023-06-26T04:02:18;7.30;;;5.93;;
67816;SDS011;54614;47.576;7.524;2023-06-26T04:04:44;9.23;;;7.22;;
67816;SDS011;54614;47.576;7.524;2023-06-26T04:07:09;9.63;;;7.22;;
67816;SDS011;54614;47.576;7.524;2023-06-26T04:09:35;12.00;;;7.25;;
67816;SDS011;54614;47.576;7.524;2023-06-26T04:12:00;12.70;;;7.28;;
67816;SDS011;54614;47.576;7.524;2023-06-26T04:14:27;10.07;;;7.43;;
67816;SDS011;54614;47.576;7.524;2023-06-26T04:16:52;10.45;;;6.95;;
67816;SDS011;54614;47.576;7.524;2023-06-26T04:19:18;11.57;;;7.80;;
67816;SDS011;54614;47.576;7.524;2023-06-26T04:21:44;9.10;;;7.18;;
67816;SDS011;54614;47.576;7.524;2023-06-26T04:24:10;10.25;;;6.97;;
67816;SDS011;54614;47.576;7.524;2023-06-26T04:26:35;10.70;;;7.07;;
67816;SDS011;54614;47.576;7.524;2023-06-26T04:29:02;9.43;;;6.78;;
67816;SDS011;54614;47.576;7.524;2023-06-26T04:31:28;11.55;;;7.50;;
67816;SDS011;54614;47.576;7.524;2023-06-26T04:33:54;9.43;;;7.20;;
67816;SDS011;54614;47.576;7.524;2023-06-26T04:36:20;8.40;;;6.93;;
67816;SDS011;54614;47.576;7.524;2023-06-26T04:38:46;10.50;;;7.63;;
67816;SDS011;54614;47.576;7.524;2023-06-26T04:41:13;10.02;;;7.03;;
67816;SDS011;54614;47.576;7.524;2023-06-26T04:43:39;12.88;;;7.82;;
67816;SDS011;54614;47.576;7.524;2023-06-26T04:46:05;9.70;;;7.32;;
67816;SDS011;54614;47.576;7.524;2023-06-26T04:48:31;9.07;;;6.95;;
67816;SDS011;54614;47.576;7.524;2023-06-26T04:50:57;11.93;;;7.72;;
67816;SDS011;54614;47.576;7.524;2023-06-26T04:53:24;9.30;;;7.50;;
67816;SDS011;54614;47.576;7.524;2023-06-26T04:55:53;14.18;;;8.20;;
67816;SDS011;54614;47.576;7.524;2023-06-26T04:58:18;12.13;;;7.90;;
67816;SDS011;54614;47.576;7.524;2023-06-26T05:00:45;13.57;;;8.75;;
67816;SDS011;54614;47.576;7.524;2023-06-26T05:03:13;11.20;;;8.07;;
67816;SDS011;54614;47.576;7.524;2023-06-26T05:05:41;11.05;;;8.15;;
67816;SDS011;54614;47.576;7.524;2023-06-26T05:08:18;10.52;;;7.88;;
67816;SDS011;54614;47.576;7.524;2023-06-26T05:10:48;11.10;;;8.07;;
67816;SDS011;54614;47.576;7.524;2023-06-26T05:13:14;13.85;;;8.63;;
67816;SDS011;54614;47.576;7.524;2023-06-26T05:15:42;12.35;;;8.10;;
67816;SDS011;54614;47.576;7.524;2023-06-26T05:18:08;11.88;;;8.48;;
67816;SDS011;54614;47.576;7.524;2023-06-26T05:20:35;12.45;;;8.63;;
67816;SDS011;54614;47.576;7.524;2023-06-26T05:23:04;12.68;;;9.05;;
67816;SDS011;54614;47.576;7.524;2023-06-26T05:25:30;14.30;;;8.90;;
67816;SDS011;54614;47.576;7.524;2023-06-26T05:27:57;12.07;;;8.70;;
67816;SDS011;54614;47.576;7.524;2023-06-26T05:30:24;12.80;;;8.55;;
67816;SDS011;54614;47.576;7.524;2023-06-26T05:32:50;11.30;;;8.27;;
67816;SDS011;54614;47.576;7.524;2023-06-26T05:35:18;14.57;;;9.10;;
67816;SDS011;54614;47.576;7.524;2023-06-26T05:37:48;13.75;;;8.82;;
67816;SDS011;54614;47.576;7.524;2023-06-26T05:40:16;15.25;;;9.25;;
67816;SDS011;54614;47.576;7.524;2023-06-26T05:42:42;16.73;;;8.95;;
67816;SDS011;54614;47.576;7.524;2023-06-26T05:45:09;14.32;;;9.00;;
67816;SDS011;54614;47.576;7.524;2023-06-26T05:47:35;17.35;;;9.00;;
67816;SDS011;54614;47.576;7.524;2023-06-26T05:50:01;11.05;;;7.95;;
67816;SDS011;54614;47.576;7.524;2023-06-26T05:52:28;13.73;;;7.60;;
67816;SDS011;54614;47.576;7.524;2023-06-26T05:54:55;11.43;;;8.35;;
67816;SDS011;54614;47.576;7.524;2023-06-26T05:57:24;12.13;;;8.05;;
67816;SDS011;54614;47.576;7.524;2023-06-26T05:59:50;14.45;;;7.60;;
67816;SDS011;54614;47.576;7.524;2023-06-26T06:02:16;12.57;;;7.30;;
67816;SDS011;54614;47.576;7.524;2023-06-26T06:04:42;12.30;;;7.57;;
67816;SDS011;54614;47.576;7.524;2023-06-26T06:07:07;12.77;;;7.55;;
67816;SDS011;54614;47.576;7.524;2023-06-26T06:09:33;11.82;;;7.53;;
67816;SDS011;54614;47.576;7.524;2023-06-26T06:11:59;11.90;;;7.40;;
67816;SDS011;54614;47.576;7.524;2023-06-26T06:14:26;13.18;;;7.25;;
67816;SDS011;54614;47.576;7.524;2023-06-26T06:16:53;13.35;;;8.15;;
67816;SDS011;54614;47.576;7.524;2023-06-26T06:19:19;12.35;;;7.43;;
67816;SDS011;54614;47.576;7.524;2023-06-26T06:21:44;13.63;;;7.57;;
67816;SDS011;54614;47.576;7.524;2023-06-26T06:24:10;9.88;;;7.15;;
67816;SDS011;54614;47.576;7.524;2023-06-26T06:26:35;15.55;;;7.03;;
67816;SDS011;54614;47.576;7.524;2023-06-26T06:29:01;12.70;;;7.15;;
67816;SDS011;54614;47.576;7.524;2023-06-26T06:31:27;11.07;;;7.15;;
67816;SDS011;54614;47.576;7.524;2023-06-26T06:33:56;11.30;;;7.00;;
67816;SDS011;54614;47.576;7.524;2023-06-26T06:36:22;11.75;;;6.70;;
67816;SDS011;54614;47.576;7.524;2023-06-26T06:38:48;12.45;;;7.05;;
67816;SDS011;54614;47.576;7.524;2023-06-26T06:41:13;10.32;;;7.20;;
67816;SDS011;54614;47.576;7.524;2023-06-26T06:43:40;10.35;;;7.03;;
67816;SDS011;54614;47.576;7.524;2023-06-26T06:46:06;10.27;;;6.63;;
67816;SDS011;54614;47.576;7.524;2023-06-26T06:48:31;9.25;;;6.82;;
67816;SDS011;54614;47.576;7.524;2023-06-26T06:50:57;10.77;;;6.68;;
67816;SDS011;54614;47.576;7.524;2023-06-26T06:53:23;10.35;;;6.35;;
67816;SDS011;54614;47.576;7.524;2023-06-26T06:55:49;10.25;;;6.57;;
67816;SDS011;54614;47.576;7.524;2023-06-26T06:58:15;10.43;;;7.03;;
67816;SDS011;54614;47.576;7.524;2023-06-26T07:00:44;9.48;;;6.30;;
67816;SDS011;54614;47.576;7.524;2023-06-26T07:03:10;10.73;;;6.68;;
67816;SDS011;54614;47.576;7.524;2023-06-26T07:05:36;9.05;;;6.47;;
67816;SDS011;54614;47.576;7.524;2023-06-26T07:08:02;11.85;;;6.97;;
67816;SDS011;54614;47.576;7.524;2023-06-26T07:10:28;10.63;;;6.38;;
67816;SDS011;54614;47.576;7.524;2023-06-26T07:12:54;10.43;;;6.55;;
67816;SDS011;54614;47.576;7.524;2023-06-26T07:15:20;8.45;;;6.38;;
67816;SDS011;54614;47.576;7.524;2023-06-26T07:17:46;13.00;;;6.93;;
67816;SDS011;54614;47.576;7.524;2023-06-26T07:20:11;9.25;;;6.93;;
67816;SDS011;54614;47.576;7.524;2023-06-26T07:22:40;7.95;;;6.40;;
67816;SDS011;54614;47.576;7.524;2023-06-26T07:25:07;13.32;;;6.30;;
67816;SDS011;54614;47.576;7.524;2023-06-26T07:27:39;11.35;;;6.70;;
67816;SDS011;54614;47.576;7.524;2023-06-26T07:30:06;10.27;;;6.53;;
67816;SDS011;54614;47.576;7.524;2023-06-26T07:32:35;10.00;;;6.72;;
67816;SDS011;54614;47.576;7.524;2023-06-26T07:35:05;11.10;;;6.18;;
67816;SDS011;54614;47.576;7.524;2023-06-26T07:37:31;9.73;;;6.72;;
67816;SDS011;54614;47.576;7.524;2023-06-26T07:39:57;12.63;;;6.78;;
67816;SDS011;54614;47.576;7.524;2023-06-26T07:42:23;11.80;;;6.55;;
67816;SDS011;54614;47.576;7.524;2023-06-26T07:44:48;9.15;;;6.10;;
67816;SDS011;54614;47.576;7.524;2023-06-26T07:47:14;9.77;;;6.60;;
67816;SDS011;54614;47.576;7.524;2023-06-26T07:49:40;10.50;;;6.45;;
67816;SDS011;54614;47.576;7.524;2023-06-26T07:52:06;9.18;;;5.97;;
67816;SDS011;54614;47.576;7.524;2023-06-26T07:54:32;9.00;;;6.47;;
67816;SDS011;54614;47.576;7.524;2023-06-26T07:56:58;9.00;;;6.45;;
67816;SDS011;54614;47.576;7.524;2023-06-26T07:59:26;10.02;;;6.63;;
67816;SDS011;54614;47.576;7.524;2023-06-26T08:01:53;8.00;;;5.78;;
67816;SDS011;54614;47.576;7.524;2023-06-26T08:04:20;9.10;;;6.15;;
67816;SDS011;54614;47.576;7.524;2023-06-26T08:06:48;8.52;;;6.22;;
67816;SDS011;54614;47.576;7.524;2023-06-26T08:09:14;10.52;;;6.15;;
67816;SDS011;54614;47.576;7.524;2023-06-26T08:11:40;8.82;;;6.40;;
67816;SDS011;54614;47.576;7.524;2023-06-26T08:14:06;11.30;;;6.53;;
67816;SDS011;54614;47.576;7.524;2023-06-26T08:16:32;8.00;;;6.20;;
67816;SDS011;54614;47.576;7.524;2023-06-26T08:18:57;8.02;;;6.20;;
67816;SDS011;54614;47.576;7.524;2023-06-26T08:21:23;7.28;;;5.85;;
67816;SDS011;54614;47.576;7.524;2023-06-26T08:23:49;6.57;;;5.70;;
67816;SDS011;54614;47.576;7.524;2023-06-26T08:26:14;9.07;;;5.43;;
67816;SDS011;54614;47.576;7.524;2023-06-26T08:28:40;6.80;;;5.25;;
67816;SDS011;54614;47.576;7.524;2023-06-26T08:31:05;7.43;;;5.68;;
67816;SDS011;54614;47.576;7.524;2023-06-26T08:33:31;9.27;;;5.78;;
67816;SDS011;54614;47.576;7.524;2023-06-26T08:35:57;7.68;;;5.97;;
67816;SDS011;54614;47.576;7.524;2023-06-26T08:38:23;8.27;;;5.80;;
67816;SDS011;54614;47.576;7.524;2023-06-26T08:40:48;6.97;;;5.32;;
67816;SDS011;54614;47.576;7.524;2023-06-26T08:43:14;7.30;;;5.43;;
67816;SDS011;54614;47.576;7.524;2023-06-26T08:45:39;6.50;;;5.35;;
67816;SDS011;54614;47.576;7.524;2023-06-26T08:48:08;6.85;;;5.70;;
67816;SDS011;54614;47.576;7.524;2023-06-26T08:50:35;6.35;;;5.45;;
67816;SDS011;54614;47.576;7.524;2023-06-26T08:55:46;8.45;;;5.63;;
67816;SDS011;54614;47.576;7.524;2023-06-26T08:58:17;7.63;;;5.43;;
67816;SDS011;54614;47.576;7.524;2023-06-26T09:00:43;10.23;;;5.13;;
67816;SDS011;54614;47.576;7.524;2023-06-26T09:03:08;8.25;;;5.55;;
67816;SDS011;54614;47.576;7.524;2023-06-26T09:05:35;9.85;;;4.80;;
67816;SDS011;54614;47.576;7.524;2023-06-26T09:08:01;8.25;;;5.47;;
67816;SDS011;54614;47.576;7.524;2023-06-26T09:10:27;6.22;;;5.35;;
67816;SDS011;54614;47.576;7.524;2023-06-26T09:12:56;6.38;;;5.07;;
67816;SDS011;54614;47.576;7.524;2023-06-26T09:15:26;7.13;;;5.07;;
67816;SDS011;54614;47.576;7.524;2023-06-26T09:17:55;8.63;;;5.40;;
67816;SDS011;54614;47.576;7.524;2023-06-26T09:20:27;6.30;;;5.25;;
67816;SDS011;54614;47.576;7.524;2023-06-26T09:22:55;7.45;;;5.15;;
67816;SDS011;54614;47.576;7.524;2023-06-26T09:25:21;6.05;;;5.18;;
67816;SDS011;54614;47.576;7.524;2023-06-26T09:27:48;8.15;;;5.38;;
67816;SDS011;54614;47.576;7.524;2023-06-26T09:30:16;6.00;;;5.38;;
67816;SDS011;54614;47.576;7.524;2023-06-26T09:32:44;7.18;;;4.88;;
67816;SDS011;54614;47.576;7.524;2023-06-26T09:35:11;7.43;;;5.13;;
67816;SDS011;54614;47.576;7.524;2023-06-26T09:37:37;6.93;;;5.00;;
67816;SDS011;54614;47.576;7.524;2023-06-26T09:40:03;5.55;;;4.93;;
67816;SDS011;54614;47.576;7.524;2023-06-26T09:42:30;5.95;;;4.95;;
67816;SDS011;54614;47.576;7.524;2023-06-26T09:44:56;5.70;;;5.00;;
67816;SDS011;54614;47.576;7.524;2023-06-26T09:47:23;5.68;;;4.57;;
67816;SDS011;54614;47.576;7.524;2023-06-26T09:49:49;5.80;;;4.70;;
67816;SDS011;54614;47.576;7.524;2023-06-26T09:52:17;6.10;;;4.90;;
67816;SDS011;54614;47.576;7.524;2023-06-26T09:54:44;7.90;;;5.00;;
67816;SDS011;54614;47.576;7.524;2023-06-26T09:57:14;5.57;;;4.75;;
67816;SDS011;54614;47.576;7.524;2023-06-26T09:59:41;6.13;;;4.97;;
67816;SDS011;54614;47.576;7.524;2023-06-26T10:02:09;6.07;;;5.03;;
67816;SDS011;54614;47.576;7.524;2023-06-26T10:04:37;5.10;;;4.38;;
67816;SDS011;54614;47.576;7.524;2023-06-26T10:07:13;5.57;;;4.70;;
67816;SDS011;54614;47.576;7.524;2023-06-26T10:09:42;5.78;;;4.95;;
67816;SDS011;54614;47.576;7.524;2023-06-26T10:12:20;5.32;;;4.78;;
67816;SDS011;54614;47.576;7.524;2023-06-26T10:14:58;5.00;;;4.50;;
67816;SDS011;54614;47.576;7.524;2023-06-26T10:17:30;5.60;;;4.82;;
67816;SDS011;54614;47.576;7.524;2023-06-26T10:20:01;5.55;;;4.85;;
67816;SDS011;54614;47.576;7.524;2023-06-26T10:22:29;5.65;;;4.82;;
67816;SDS011;54614;47.576;7.524;2023-06-26T10:24:58;5.28;;;4.78;;
67816;SDS011;54614;47.576;7.524;2023-06-26T10:27:25;6.63;;;4.68;;
67816;SDS011;54614;47.576;7.524;2023-06-26T10:29:56;5.72;;;4.90;;
67816;SDS011;54614;47.576;7.524;2023-06-26T10:32:27;5.72;;;5.13;;
67816;SDS011;54614;47.576;7.524;2023-06-26T10:34:54;4.50;;;4.10;;
67816;SDS011;54614;47.576;7.524;2023-06-26T10:37:20;5.35;;;4.65;;
67816;SDS011;54614;47.576;7.524;2023-06-26T10:42:14;5.82;;;4.53;;
67816;SDS011;54614;47.576;7.524;2023-06-26T10:44:41;5.10;;;4.60;;
67816;SDS011;54614;47.576;7.524;2023-06-26T10:47:11;5.22;;;4.57;;
67816;SDS011;54614;47.576;7.524;2023-06-26T10:49:53;6.05;;;4.65;;
67816;SDS011;54614;47.576;7.524;2023-06-26T10:52:19;5.10;;;4.45;;
67816;SDS011;54614;47.576;7.524;2023-06-26T10:54:45;6.25;;;4.30;;
67816;SDS011;54614;47.576;7.524;2023-06-26T10:57:10;5.30;;;4.70;;
67816;SDS011;54614;47.576;7.524;2023-06-26T10:59:38;6.78;;;4.50;;
67816;SDS011;54614;47.576;7.524;2023-06-26T11:02:05;5.90;;;4.30;;
67816;SDS011;54614;47.576;7.524;2023-06-26T11:07:24;5.20;;;4.32;;
67816;SDS011;54614;47.576;7.524;2023-06-26T11:12:38;5.90;;;4.63;;
67816;SDS011;54614;47.576;7.524;2023-06-26T11:17:35;4.93;;;4.43;;
67816;SDS011;54614;47.576;7.524;2023-06-26T11:20:02;4.90;;;4.40;;
67816;SDS011;54614;47.576;7.524;2023-06-26T11:22:33;11.52;;;4.55;;
67816;SDS011;54614;47.576;7.524;2023-06-26T11:25:01;4.80;;;4.30;;
67816;SDS011;54614;47.576;7.524;2023-06-26T11:27:43;4.68;;;4.13;;
67816;SDS011;54614;47.576;7.524;2023-06-26T11:30:10;5.07;;;4.20;;
67816;SDS011;54614;47.576;7.524;2023-06-26T11:32:37;4.97;;;4.00;;
67816;SDS011;54614;47.576;7.524;2023-06-26T11:35:04;5.72;;;4.70;;
67816;SDS011;54614;47.576;7.524;2023-06-26T11:37:31;4.88;;;4.32;;
67816;SDS011;54614;47.576;7.524;2023-06-26T11:39:57;4.68;;;4.13;;
67816;SDS011;54614;47.576;7.524;2023-06-26T11:42:23;4.32;;;3.92;;
67816;SDS011;54614;47.576;7.524;2023-06-26T11:44:51;5.10;;;4.10;;
67816;SDS011;54614;47.576;7.524;2023-06-26T11:47:18;4.93;;;4.28;;
67816;SDS011;54614;47.576;7.524;2023-06-26T11:49:45;5.20;;;3.85;;
67816;SDS011;54614;47.576;7.524;2023-06-26T11:52:12;6.65;;;4.30;;
67816;SDS011;54614;47.576;7.524;2023-06-26T11:54:39;6.20;;;4.20;;
67816;SDS011;54614;47.576;7.524;2023-06-26T11:57:05;4.28;;;3.88;;
67816;SDS011;54614;47.576;7.524;2023-06-26T11:59:38;4.55;;;3.95;;
67816;SDS011;54614;47.576;7.524;2023-06-26T12:02:05;5.28;;;3.90;;
67816;SDS011;54614;47.576;7.524;2023-06-26T12:04:41;4.70;;;3.90;;
67816;SDS011;54614;47.576;7.524;2023-06-26T12:07:09;5.00;;;4.10;;
67816;SDS011;54614;47.576;7.524;2023-06-26T12:09:39;4.72;;;4.18;;
67816;SDS011;54614;47.576;7.524;2023-06-26T12:12:06;5.03;;;4.15;;
67816;SDS011;54614;47.576;7.524;2023-06-26T12:14:32;5.00;;;4.00;;
67816;SDS011;54614;47.576;7.524;2023-06-26T12:17:09;4.63;;;4.13;;
67816;SDS011;54614;47.576;7.524;2023-06-26T12:19:45;6.75;;;4.10;;
67816;SDS011;54614;47.576;7.524;2023-06-26T12:22:15;5.53;;;4.20;;
67816;SDS011;54614;47.576;7.524;2023-06-26T12:24:45;8.32;;;4.00;;
67816;SDS011;54614;47.576;7.524;2023-06-26T12:27:12;5.95;;;4.10;;
67816;SDS011;54614;47.576;7.524;2023-06-26T12:29:40;4.90;;;3.83;;
67816;SDS011;54614;47.576;7.524;2023-06-26T12:32:12;4.65;;;4.15;;
67816;SDS011;54614;47.576;7.524;2023-06-26T12:34:39;5.78;;;3.92;;
67816;SDS011;54614;47.576;7.524;2023-06-26T12:37:06;4.82;;;3.80;;
67816;SDS011;54614;47.576;7.524;2023-06-26T12:39:46;6.93;;;3.72;;
67816;SDS011;54614;47.576;7.524;2023-06-26T12:42:16;4.95;;;4.00;;
67816;SDS011;54614;47.576;7.524;2023-06-26T12:44:47;5.53;;;3.83;;
67816;SDS011;54614;47.576;7.524;2023-06-26T12:47:14;6.93;;;3.63;;
67816;SDS011;54614;47.576;7.524;2023-06-26T12:49:41;5.28;;;4.30;;
67816;SDS011;54614;47.576;7.524;2023-06-26T12:52:09;4.25;;;3.85;;
67816;SDS011;54614;47.576;7.524;2023-06-26T12:54:37;3.80;;;3.40;;
67816;SDS011;54614;47.576;7.524;2023-06-26T12:57:11;4.75;;;3.92;;
67816;SDS011;54614;47.576;7.524;2023-06-26T12:59:39;4.78;;;4.20;;
67816;SDS011;54614;47.576;7.524;2023-06-26T13:02:05;4.30;;;3.90;;
67816;SDS011;54614;47.576;7.524;2023-06-26T13:04:31;4.40;;;4.00;;
67816;SDS011;54614;47.576;7.524;2023-06-26T13:06:58;4.47;;;3.80;;
67816;SDS011;54614;47.576;7.524;2023-06-26T13:09:23;4.35;;;3.95;;
67816;SDS011;54614;47.576;7.524;2023-06-26T13:11:50;4.20;;;3.80;;
67816;SDS011;54614;47.576;7.524;2023-06-26T13:14:17;4.65;;;3.80;;
67816;SDS011;54614;47.576;7.524;2023-06-26T13:16:42;3.80;;;3.50;;
67816;SDS011;54614;47.576;7.524;2023-06-26T13:19:08;4.68;;;3.80;;
67816;SDS011;54614;47.576;7.524;2023-06-26T13:21:34;4.20;;;3.80;;
67816;SDS011;54614;47.576;7.524;2023-06-26T13:24:00;4.10;;;3.70;;
67816;SDS011;54614;47.576;7.524;2023-06-26T13:26:26;4.05;;;3.63;;
67816;SDS011;54614;47.576;7.524;2023-06-26T13:28:53;4.20;;;3.58;;
67816;SDS011;54614;47.576;7.524;2023-06-26T13:31:19;4.40;;;3.53;;
67816;SDS011;54614;47.576;7.524;2023-06-26T13:33:46;4.35;;;3.95;;
67816;SDS011;54614;47.576;7.524;2023-06-26T13:36:13;4.55;;;3.70;;
67816;SDS011;54614;47.576;7.524;2023-06-26T13:38:40;5.97;;;4.00;;
67816;SDS011;54614;47.576;7.524;2023-06-26T13:41:05;4.15;;;3.75;;
67816;SDS011;54614;47.576;7.524;2023-06-26T13:43:31;3.72;;;3.30;;
67816;SDS011;54614;47.576;7.524;2023-06-26T13:45:57;4.60;;;3.53;;
67816;SDS011;54614;47.576;7.524;2023-06-26T13:48:23;3.88;;;3.47;;
67816;SDS011;54614;47.576;7.524;2023-06-26T13:50:51;4.30;;;3.90;;
67816;SDS011;54614;47.576;7.524;2023-06-26T13:53:18;4.40;;;3.75;;
67816;SDS011;54614;47.576;7.524;2023-06-26T13:55:44;4.70;;;3.72;;
67816;SDS011;54614;47.576;7.524;2023-06-26T13:58:10;4.28;;;3.40;;
67816;SDS011;54614;47.576;7.524;2023-06-26T14:00:36;4.97;;;3.60;;
67816;SDS011;54614;47.576;7.524;2023-06-26T14:03:05;3.83;;;3.50;;
67816;SDS011;54614;47.576;7.524;2023-06-26T14:05:32;5.63;;;3.58;;
67816;SDS011;54614;47.576;7.524;2023-06-26T14:07:58;4.70;;;3.83;;
67816;SDS011;54614;47.576;7.524;2023-06-26T14:10:24;4.20;;;3.78;;
67816;SDS011;54614;47.576;7.524;2023-06-26T14:12:50;5.60;;;3.70;;
67816;SDS011;54614;47.576;7.524;2023-06-26T14:15:16;3.90;;;3.42;;
67816;SDS011;54614;47.576;7.524;2023-06-26T14:17:41;4.30;;;3.72;;
67816;SDS011;54614;47.576;7.524;2023-06-26T14:20:08;4.70;;;3.45;;
67816;SDS011;54614;47.576;7.524;2023-06-26T14:22:41;3.80;;;3.50;;
67816;SDS011;54614;47.576;7.524;2023-06-26T14:25:08;4.75;;;3.45;;
67816;SDS011;54614;47.576;7.524;2023-06-26T14:27:35;4.45;;;3.47;;
67816;SDS011;54614;47.576;7.524;2023-06-26T14:30:05;4.65;;;3.53;;
67816;SDS011;54614;47.576;7.524;2023-06-26T14:32:32;3.70;;;3.40;;
67816;SDS011;54614;47.576;7.524;2023-06-26T14:34:58;3.50;;;3.20;;
67816;SDS011;54614;47.576;7.524;2023-06-26T14:37:25;4.38;;;3.40;;
67816;SDS011;54614;47.576;7.524;2023-06-26T14:39:51;6.65;;;3.50;;
67816;SDS011;54614;47.576;7.524;2023-06-26T14:42:17;4.35;;;3.50;;
67816;SDS011;54614;47.576;7.524;2023-06-26T14:44:43;4.85;;;3.78;;
67816;SDS011;54614;47.576;7.524;2023-06-26T14:47:11;5.13;;;3.45;;
67816;SDS011;54614;47.576;7.524;2023-06-26T14:49:37;6.68;;;3.47;;
67816;SDS011;54614;47.576;7.524;2023-06-26T14:52:03;4.70;;;3.42;;
67816;SDS011;54614;47.576;7.524;2023-06-26T14:54:29;3.78;;;3.47;;
67816;SDS011;54614;47.576;7.524;2023-06-26T14:56:55;4.20;;;3.28;;
67816;SDS011;54614;47.576;7.524;2023-06-26T14:59:20;4.32;;;3.55;;
67816;SDS011;54614;47.576;7.524;2023-06-26T15:01:46;6.07;;;3.45;;